Observations for Trim Patrick St
| Time | AQI | Temp °C | Hum % | Pres Pa | CO μg/m³ | H₂S μg/m³ | NO μg/m³ | NO₂ μg/m³ | O₃ μg/m³ | SO₂ μg/m³ | PM1 μg/m³ | PM2.5 μg/m³ | PM10 μg/m³ |
|---|---|---|---|---|---|---|---|---|---|---|---|---|---|
| Friday 28 August 2026 | |||||||||||||
| 08:58 | 2 | 17.9 | 86 | 38,459 | 0.21 | 2.63 | 2.3 | 3.25 | 36.21 | 0.18 | 20 | 28.82 | 31.7 |
| 08:57 | 2 | 17.9 | 86 | 38,459 | 0.19 | 3.05 | 2.3 | 7.76 | 40.31 | 0.11 | 20.86 | 29.51 | 32.46 |
| 08:56 | 2 | 17.8 | 87 | 38,459 | 0.2 | 3.05 | 2.3 | 10.5 | 35.81 | 0.58 | 19.14 | 29.46 | 32.41 |
| 08:55 | 2 | 17.8 | 87 | 38,459 | 0.2 | 3.6 | 2.28 | 8.19 | 31.81 | 0.63 | 20 | 28.1 | 30.92 |
| 08:54 | 2 | 17.8 | 87 | 38,459 | 0.21 | 1.95 | 2.28 | 1.84 | 29.82 | 1.51 | 20 | 28.8 | 31.69 |
| 08:53 | 2 | 17.8 | 87 | 38,459 | 0.19 | 2.34 | 2.29 | 2.9 | 34.32 | 1.21 | 20 | 27.43 | 30.18 |
| 08:52 | 2 | 17.7 | 87 | 38,459 | 0.22 | 1.32 | 2.32 | 3.52 | 27.35 | 1.54 | 18.29 | 28.12 | 30.93 |
| 08:51 | 2 | 17.7 | 87 | 38,459 | 0.2 | 1.3 | 2.31 | 0.59 | 33.2 | 1.19 | 20.86 | 28.8 | 31.69 |
| 08:50 | 2 | 17.7 | 87 | 38,459 | 0.2 | 2.48 | 2.35 | 4.75 | 36.25 | 0.9 | 20 | 26.73 | 29.41 |
| 08:49 | 2 | 17.7 | 87 | 38,459 | 0.2 | 2.21 | 2.37 | 4.21 | 33.52 | 1.04 | 18.29 | 28.08 | 30.89 |
| 08:48 | 2 | 17.7 | 87 | 38,459 | 0.2 | 3.31 | 2.37 | 3.5 | 42.05 | 0.2 | 20 | 28.79 | 31.67 |
| 08:47 | 2 | 17.6 | 87 | 38,459 | 0.21 | 2.79 | 2.36 | 8.87 | 33.22 | 0.55 | 19.14 | 28.1 | 30.92 |
| 08:46 | 2 | 17.6 | 87 | 38,459 | 0.24 | 3 | 2.37 | 11.72 | 23.45 | 1.2 | 19.14 | 26.72 | 29.39 |
| 08:45 | 2 | 17.6 | 87 | 38,459 | 0.23 | 3.18 | 2.35 | 11.48 | 28.64 | 0.72 | 18.29 | 26.05 | 27.36 |
| 08:44 | 2 | 17.6 | 87 | 38,459 | 0.22 | 2.66 | 2.36 | 7.43 | 27.32 | 0.91 | 18.29 | 26.02 | 28.62 |
| 08:43 | 2 | 17.6 | 87 | 38,459 | 0.21 | 2.79 | 2.36 | 5.85 | 34.28 | 0.54 | 20 | 27.38 | 29.2 |
| 08:42 | 2 | 17.6 | 87 | 38,459 | 0.23 | 2.22 | 2.32 | 8.41 | 25.98 | 1.42 | 18.29 | 26.72 | 29.39 |
| 08:39 | 2 | 17.5 | 87 | 38,459 | 0.21 | 1.54 | 2.34 | 1.59 | 29.05 | 1.22 | 20 | 28.76 | 31.64 |
| 08:35 | 2 | 17.5 | 87 | 38,459 | 0.2 | 1.98 | 2.43 | 6.67 | 28.52 | 0.62 | 19.14 | 26.01 | 28.61 |
| 08:34 | 2 | 17.5 | 87 | 38,459 | 0.21 | 1.9 | 2.43 | 5.65 | 29.33 | 0.11 | 18.29 | 26.68 | 29.35 |